KLM636 KLAS-EHAM
Flight info
| Callsign | KLM636 |
|---|---|
| Flight time | N/A |
| Altitude | 35000 |
| Route | RATPK3 FRNCK DCT MLF DCT KD81U DCT KD90W DCT KP15A DCT KP21C DCT 5130N09000W/N0489F370 55N080W 58N070W DCT FASSA DCT MUSLO/M083F370 DCT NIFTY DCT 62N050W/M083F390 6230N04000W 62N030W 6030N02000W DCT ERAKA/N0482F390 DCT ETSOM DCT TLA DCT NATEB DCT LARDI DCT TOPPA |
| Aircraft | B772/H-SDE2E3FGHIJ5LORVWXY/LB1D1 |
Departure
| Time | N/A |
|---|---|
| Airport | Harry Reid International Airport (KLAS) |
Arrival
| Time | 2026-05-06 10:00 |
|---|---|
| Airport | Amsterdam Airport Schiphol (EHAM) |
| Time | Latitude | Longitude | Altitude | Speed | Heading |
|---|---|---|---|---|---|
| 2026-05-06 09:35 | 53.68995 | 3.23424 | 34191 ft | 452 kts | 120° |
| 2026-05-06 09:36 | 53.67571 | 3.28115 | 33689 ft | 447 kts | 120° |
| 2026-05-06 09:36 | 53.66157 | 3.32765 | 33130 ft | 443 kts | 120° |
| 2026-05-06 09:36 | 53.64759 | 3.37354 | 32574 ft | 438 kts | 120° |
| 2026-05-06 09:36 | 53.63372 | 3.41897 | 32066 ft | 434 kts | 120° |
| 2026-05-06 09:37 | 53.61949 | 3.46255 | 31468 ft | 423 kts | 128° |
| 2026-05-06 09:37 | 53.59912 | 3.49723 | 30795 ft | 414 kts | 149° |
| 2026-05-06 09:37 | 53.57399 | 3.51954 | 30297 ft | 404 kts | 162° |
| 2026-05-06 09:37 | 53.54713 | 3.53085 | 29806 ft | 394 kts | 174° |
| 2026-05-06 09:38 | 53.52004 | 3.53647 | 29232 ft | 390 kts | 175° |
| 2026-05-06 09:38 | 53.49316 | 3.54160 | 28597 ft | 388 kts | 175° |
| 2026-05-06 09:38 | 53.46640 | 3.54697 | 27981 ft | 386 kts | 175° |
| 2026-05-06 09:38 | 53.43987 | 3.55271 | 27401 ft | 384 kts | 175° |
| 2026-05-06 09:39 | 53.41348 | 3.55860 | 26873 ft | 381 kts | 175° |
| 2026-05-06 09:39 | 53.38722 | 3.56484 | 26345 ft | 379 kts | 173° |
| 2026-05-06 09:39 | 53.36128 | 3.57219 | 25843 ft | 378 kts | 172° |
| 2026-05-06 09:39 | 53.33547 | 3.57995 | 25353 ft | 376 kts | 172° |
| 2026-05-06 09:40 | 53.30982 | 3.58774 | 24886 ft | 374 kts | 172° |
| 2026-05-06 09:40 | 53.28430 | 3.59540 | 24428 ft | 372 kts | 172° |
| 2026-05-06 09:40 | 53.23366 | 3.61042 | 23632 ft | 366 kts | 173° |
| 2026-05-06 09:41 | 53.20860 | 3.61775 | 23120 ft | 366 kts | 172° |
| 2026-05-06 09:41 | 53.18362 | 3.62503 | 22673 ft | 363 kts | 173° |
| 2026-05-06 09:41 | 53.15875 | 3.63225 | 22196 ft | 363 kts | 173° |
| 2026-05-06 09:41 | 53.13395 | 3.63944 | 21768 ft | 361 kts | 172° |
| 2026-05-06 09:42 | 53.10922 | 3.64661 | 21341 ft | 360 kts | 172° |
| 2026-05-06 09:42 | 53.09290 | 3.65134 | 21110 ft | 357 kts | 172° |
| 2026-05-06 09:42 | 53.06046 | 3.66069 | 20517 ft | 357 kts | 172° |
| 2026-05-06 09:42 | 53.03596 | 3.66775 | 20089 ft | 357 kts | 172° |
| 2026-05-06 09:43 | 53.01157 | 3.67481 | 19773 ft | 353 kts | 173° |
| 2026-05-06 09:43 | 52.98742 | 3.68176 | 19381 ft | 352 kts | 173° |
| 2026-05-06 09:43 | 52.96329 | 3.68870 | 18995 ft | 352 kts | 174° |
| 2026-05-06 09:43 | 52.94734 | 3.69329 | 18757 ft | 350 kts | 173° |
| 2026-05-06 09:44 | 52.92321 | 3.70018 | 18264 ft | 353 kts | 172° |
| 2026-05-06 09:44 | 52.89897 | 3.70710 | 17806 ft | 353 kts | 172° |
| 2026-05-06 09:44 | 52.87489 | 3.71403 | 17476 ft | 350 kts | 173° |
| 2026-05-06 09:44 | 52.85102 | 3.72086 | 17128 ft | 346 kts | 172° |
| 2026-05-06 09:45 | 52.82733 | 3.72765 | 16758 ft | 344 kts | 172° |
| 2026-05-06 09:45 | 52.80374 | 3.73437 | 16385 ft | 343 kts | 171° |
| 2026-05-06 09:45 | 52.78031 | 3.74107 | 16010 ft | 341 kts | 172° |
| 2026-05-06 09:45 | 52.75699 | 3.74758 | 15655 ft | 339 kts | 173° |
| 2026-05-06 09:46 | 52.73355 | 3.75212 | 15293 ft | 337 kts | 176° |
| 2026-05-06 09:46 | 52.71031 | 3.75541 | 14943 ft | 335 kts | 177° |
| 2026-05-06 09:46 | 52.68710 | 3.75859 | 14555 ft | 334 kts | 176° |
| 2026-05-06 09:46 | 52.66397 | 3.76199 | 14195 ft | 333 kts | 176° |
| 2026-05-06 09:47 | 52.64094 | 3.76554 | 13887 ft | 331 kts | 175° |
| 2026-05-06 09:47 | 52.61831 | 3.77015 | 13462 ft | 325 kts | 167° |
| 2026-05-06 09:47 | 52.59792 | 3.78619 | 12908 ft | 330 kts | 140° |
| 2026-05-06 09:47 | 52.58355 | 3.81515 | 12514 ft | 325 kts | 120° |
| 2026-05-06 09:48 | 52.57217 | 3.84720 | 11986 ft | 326 kts | 121° |
| 2026-05-06 09:48 | 52.56010 | 3.87869 | 11632 ft | 325 kts | 122° |
| 2026-05-06 09:48 | 52.54801 | 3.90965 | 11450 ft | 318 kts | 122° |
| 2026-05-06 09:48 | 52.53623 | 3.93980 | 11331 ft | 309 kts | 122° |
| 2026-05-06 09:49 | 52.52483 | 3.96932 | 11156 ft | 302 kts | 119° |
| 2026-05-06 09:49 | 52.51568 | 3.99977 | 10935 ft | 292 kts | 116° |
| 2026-05-06 09:49 | 52.50366 | 4.02649 | 10442 ft | 296 kts | 138° |
| 2026-05-06 09:49 | 52.48738 | 4.04750 | 10097 ft | 298 kts | 142° |
| 2026-05-06 09:50 | 52.47095 | 4.06790 | 9856 ft | 295 kts | 142° |
| 2026-05-06 09:50 | 52.45479 | 4.08789 | 9508 ft | 296 kts | 142° |
| 2026-05-06 09:50 | 52.43829 | 4.10811 | 9217 ft | 294 kts | 142° |
| 2026-05-06 09:50 | 52.42187 | 4.12816 | 8873 ft | 295 kts | 142° |
| 2026-05-06 09:51 | 52.40541 | 4.14810 | 8584 ft | 294 kts | 142° |
| 2026-05-06 09:51 | 52.38894 | 4.16786 | 8286 ft | 293 kts | 142° |
| 2026-05-06 09:51 | 52.37255 | 4.18746 | 7928 ft | 292 kts | 143° |
| 2026-05-06 09:51 | 52.35624 | 4.20708 | 7577 ft | 290 kts | 142° |
| 2026-05-06 09:52 | 52.33998 | 4.22662 | 7230 ft | 289 kts | 142° |
| 2026-05-06 09:52 | 52.32385 | 4.24603 | 6878 ft | 288 kts | 142° |
| 2026-05-06 09:52 | 52.30770 | 4.26524 | 6493 ft | 288 kts | 142° |
| 2026-05-06 09:52 | 52.29140 | 4.28449 | 6088 ft | 289 kts | 142° |
| 2026-05-06 09:53 | 52.27504 | 4.30351 | 5685 ft | 289 kts | 142° |
| 2026-05-06 09:53 | 52.25908 | 4.32216 | 5322 ft | 287 kts | 142° |
| 2026-05-06 09:53 | 52.24318 | 4.34061 | 4924 ft | 271 kts | 142° |
| 2026-05-06 09:53 | 52.22822 | 4.35759 | 4436 ft | 254 kts | 142° |
| 2026-05-06 09:54 | 52.21395 | 4.37346 | 3942 ft | 242 kts | 142° |
| 2026-05-06 09:54 | 52.20027 | 4.38838 | 3475 ft | 232 kts | 142° |
| 2026-05-06 09:54 | 52.18890 | 4.40434 | 3377 ft | 202 kts | 117° |
| 2026-05-06 09:54 | 52.18538 | 4.42461 | 3341 ft | 180 kts | 80° |
| 2026-05-06 09:55 | 52.18822 | 4.44392 | 3417 ft | 176 kts | 72° |
| 2026-05-06 09:55 | 52.19151 | 4.46380 | 3278 ft | 185 kts | 72° |
| 2026-05-06 09:55 | 52.19475 | 4.48368 | 3149 ft | 178 kts | 72° |
| 2026-05-06 09:55 | 52.19917 | 4.50226 | 2951 ft | 175 kts | 61° |
| 2026-05-06 09:56 | 52.20518 | 4.51933 | 2792 ft | 173 kts | 57° |
| 2026-05-06 09:56 | 52.21154 | 4.53606 | 2584 ft | 174 kts | 57° |
| 2026-05-06 09:56 | 52.21799 | 4.55283 | 2412 ft | 175 kts | 57° |
| 2026-05-06 09:56 | 52.22442 | 4.56948 | 2234 ft | 173 kts | 57° |
| 2026-05-06 09:57 | 52.23081 | 4.58603 | 2079 ft | 170 kts | 57° |
| 2026-05-06 09:57 | 52.23696 | 4.60199 | 1955 ft | 168 kts | 57° |
| 2026-05-06 09:57 | 52.24311 | 4.61792 | 1720 ft | 164 kts | 57° |
| 2026-05-06 09:57 | 52.24900 | 4.63321 | 1477 ft | 154 kts | 56° |
| 2026-05-06 09:58 | 52.25450 | 4.64751 | 1301 ft | 143 kts | 56° |
| 2026-05-06 09:58 | 52.25964 | 4.66080 | 1102 ft | 134 kts | 57° |
| 2026-05-06 09:58 | 52.26442 | 4.67326 | 914 ft | 129 kts | 56° |
| 2026-05-06 09:58 | 52.26936 | 4.68578 | 777 ft | 132 kts | 55° |
| 2026-05-06 09:59 | 52.27419 | 4.69840 | 596 ft | 133 kts | 54° |
| 2026-05-06 09:59 | 52.27907 | 4.71105 | 427 ft | 131 kts | 55° |
| 2026-05-06 09:59 | 52.28383 | 4.72361 | 233 ft | 129 kts | 55° |
| 2026-05-06 09:59 | 52.28860 | 4.73586 | 61 ft | 127 kts | 56° |
| 2026-05-06 10:00 | 52.29297 | 4.74727 | 5 ft | 106 kts | 59° |
| 2026-05-06 10:00 | 52.29623 | 4.75571 | 3 ft | 72 kts | 58° |
| 2026-05-06 10:00 | 52.29854 | 4.76177 | 1 ft | 48 kts | 57° |
| 2026-05-06 10:00 | 52.30004 | 4.76514 | 2 ft | 33 kts | 37° |
| 2026-05-06 10:01 | 52.30167 | 4.76657 | 3 ft | 25 kts | 27° |
| 2026-05-06 10:01 | 52.30309 | 4.76816 | 3 ft | 25 kts | 53° |
| 2026-05-06 10:01 | 52.30401 | 4.77051 | 3 ft | 25 kts | 58° |
| 2026-05-06 10:01 | 52.30491 | 4.77289 | 3 ft | 25 kts | 58° |
| 2026-05-06 10:02 | 52.30584 | 4.77523 | 3 ft | 25 kts | 52° |
| 2026-05-06 10:02 | 52.30741 | 4.77595 | 3 ft | 25 kts | 3° |
| 2026-05-06 10:02 | 52.30911 | 4.77612 | 3 ft | 25 kts | 3° |
| 2026-05-06 10:02 | 52.31005 | 4.77604 | 3 ft | 8 kts | 330° |
| 2026-05-06 10:03 | 52.31037 | 4.77531 | 3 ft | 8 kts | 299° |
| 2026-05-06 10:03 | 52.31061 | 4.77448 | 3 ft | 9 kts | 289° |
| 2026-05-06 10:03 | 52.31071 | 4.77346 | 3 ft | 9 kts | 276° |
| 2026-05-06 10:03 | 52.31074 | 4.77242 | 3 ft | 9 kts | 273° |
| 2026-05-06 10:04 | 52.31078 | 4.77137 | 3 ft | 9 kts | 273° |
| 2026-05-06 10:04 | 52.31082 | 4.77033 | 3 ft | 9 kts | 274° |
| 2026-05-06 10:04 | 52.31086 | 4.76928 | 3 ft | 9 kts | 272° |
| 2026-05-06 10:04 | 52.31072 | 4.76831 | 3 ft | 6 kts | 268° |
| 2026-05-06 10:05 | 52.31094 | 4.76767 | 4 ft | 7 kts | 302° |
| 2026-05-06 10:05 | 52.31114 | 4.76716 | 3 ft | 3 kts | 303° |
| 2026-05-06 10:05 | 52.31119 | 4.76705 | 3 ft | 0 kts | 303° |
| 2026-05-06 10:07 | 52.31119 | 4.76706 | 3 ft | 0 kts | 303° |